createdAt,value
2023-03-15T00:00:08.184Z,99344.81
2023-03-15T00:02:50.871Z,99338.47
2023-03-15T00:05:36.015Z,99315.19
2023-03-15T00:08:12.429Z,99327.38
2023-03-15T00:11:01.121Z,99325.59
2023-03-15T00:13:37.895Z,99326.69
2023-03-15T00:16:23.408Z,99326.19
2023-03-15T00:18:59.792Z,99315.53
2023-03-15T00:21:43.877Z,99312.66
2023-03-15T00:24:25.185Z,99304.66
2023-03-15T00:27:04.024Z,99312.84
2023-03-15T00:29:45.531Z,99317.56
2023-03-15T00:32:26.792Z,99311.81
2023-03-15T00:35:01.935Z,99318.03
2023-03-15T00:37:40.074Z,99316.53
2023-03-15T00:40:23.551Z,99302.34
2023-03-15T00:43:04.849Z,99313.88
2023-03-15T00:45:41.935Z,99309.63
2023-03-15T00:48:28.486Z,99300.72
2023-03-15T00:51:30.318Z,99301.63
2023-03-15T00:54:07.281Z,99284.50
2023-03-15T00:56:40.633Z,99279.59
2023-03-15T00:59:30.678Z,99269.91
2023-03-15T01:02:09.921Z,99274.66
2023-03-15T01:04:48.810Z,99253.25
2023-03-15T01:07:30.787Z,99271.88
2023-03-15T01:10:17.226Z,99267.41
2023-03-15T01:13:02.661Z,99258.97
2023-03-15T01:15:53.256Z,99268.94
2023-03-15T01:18:42.937Z,99278.44
2023-03-15T01:21:23.850Z,99273.06
2023-03-15T01:24:04.897Z,99285.56
2023-03-15T01:26:49.129Z,99281.44
2023-03-15T01:29:33.953Z,99266.09
2023-03-15T01:32:19.915Z,99280.78
2023-03-15T01:35:11.128Z,99267.09
2023-03-15T01:37:55.915Z,99263.16
2023-03-15T01:40:32.273Z,99246.63
2023-03-15T01:43:25.548Z,99271.59
2023-03-15T01:46:28.624Z,99270.06
2023-03-15T01:49:22.492Z,99269.88
2023-03-15T01:52:13.039Z,99274.97
2023-03-15T01:55:28.444Z,99270.41
2023-03-15T01:58:18.475Z,99267.13
2023-03-15T02:00:56.007Z,99263.13
2023-03-15T02:03:54.047Z,99272.78
2023-03-15T02:06:44.499Z,99270.41
2023-03-15T02:09:25.445Z,99259.50
2023-03-15T02:12:09.979Z,99276.84
2023-03-15T02:14:51.373Z,99260.25
2023-03-15T02:17:34.182Z,99277.38
2023-03-15T02:20:25.221Z,99277.75
2023-03-15T02:23:08.987Z,99273.41
2023-03-15T02:25:59.936Z,99279.00
2023-03-15T02:28:35.698Z,99290.00
2023-03-15T02:31:14.870Z,99284.22
2023-03-15T02:33:53.368Z,99288.75
2023-03-15T02:36:34.092Z,99281.44
2023-03-15T02:39:21.554Z,99289.81
2023-03-15T02:42:02.545Z,99284.84
2023-03-15T02:44:45.415Z,99291.31
2023-03-15T02:47:29.536Z,99287.34
2023-03-15T02:50:15.837Z,99284.16
2023-03-15T02:52:56.789Z,99275.34
2023-03-15T02:55:46.157Z,99268.63
2023-03-15T02:58:28.429Z,99272.38
2023-03-15T03:01:09.969Z,99261.91
2023-03-15T03:03:58.009Z,99267.28
2023-03-15T03:06:33.890Z,99272.97
2023-03-15T03:09:13.257Z,99258.19
2023-03-15T03:12:15.741Z,99256.09
2023-03-15T03:15:01.987Z,99259.69
2023-03-15T03:17:49.338Z,99259.59
2023-03-15T03:20:29.364Z,99260.22
2023-03-15T03:23:12.304Z,99269.81
2023-03-15T03:25:52.193Z,99264.25
2023-03-15T03:28:29.777Z,99250.88
2023-03-15T03:31:13.012Z,99256.97
2023-03-15T03:33:51.677Z,99267.00
2023-03-15T03:36:38.876Z,99265.00
2023-03-15T03:39:28.188Z,99244.59
2023-03-15T03:42:05.444Z,99271.00
2023-03-15T03:44:48.420Z,99279.50
2023-03-15T03:47:26.891Z,99281.38
2023-03-15T03:50:04.021Z,99284.88
2023-03-15T03:52:48.597Z,99277.56
2023-03-15T03:55:31.508Z,99281.50
2023-03-15T03:58:05.405Z,99268.72
2023-03-15T04:01:05.128Z,99278.16
2023-03-15T04:03:52.435Z,99280.03
2023-03-15T04:07:17.038Z,99271.47
2023-03-15T04:09:54.704Z,99261.88
2023-03-15T04:12:33.730Z,99244.00
2023-03-15T04:15:16.966Z,99255.09
2023-03-15T04:17:59.220Z,99250.00
2023-03-15T04:20:48.158Z,99249.28
2023-03-15T04:23:28.959Z,99255.06
2023-03-15T04:26:32.842Z,99250.47
2023-03-15T04:29:26.794Z,99270.13
2023-03-15T04:32:36.033Z,99237.91
2023-03-15T04:35:31.716Z,99253.06
2023-03-15T04:38:30.427Z,99233.66
2023-03-15T04:41:53.341Z,99215.09
2023-03-15T04:44:48.070Z,99243.78
2023-03-15T04:48:01.793Z,99253.88
2023-03-15T04:51:03.116Z,99265.25
2023-03-15T04:53:51.627Z,99265.41
2023-03-15T04:57:01.413Z,99265.50
2023-03-15T05:00:10.059Z,99267.56
2023-03-15T05:03:08.007Z,99262.75
2023-03-15T05:06:16.233Z,99265.84
2023-03-15T05:09:23.943Z,99278.00
2023-03-15T05:12:30.565Z,99275.78
2023-03-15T05:15:49.137Z,99274.47
2023-03-15T05:18:56.494Z,99254.94
2023-03-15T05:21:58.733Z,99268.38
2023-03-15T05:25:11.474Z,99258.97
2023-03-15T05:28:06.957Z,99277.03
2023-03-15T05:30:59.456Z,99265.00
2023-03-15T05:34:20.763Z,99260.69
2023-03-15T05:37:18.272Z,99281.69
2023-03-15T05:40:19.735Z,99291.59
2023-03-15T05:43:33.437Z,99283.50
2023-03-15T05:46:28.549Z,99288.41
2023-03-15T05:49:28.922Z,99291.44
2023-03-15T05:52:37.092Z,99292.25
2023-03-15T05:55:35.581Z,99311.44
2023-03-15T05:58:38.773Z,99298.81
2023-03-15T06:01:39.174Z,99314.34
2023-03-15T06:04:38.162Z,99315.34
2023-03-15T06:07:18.468Z,99315.16
2023-03-15T06:09:56.631Z,99324.94
2023-03-15T06:12:34.711Z,99314.63
2023-03-15T06:15:19.099Z,99321.78
2023-03-15T06:18:00.335Z,99330.03
2023-03-15T06:20:36.787Z,99330.03
2023-03-15T06:23:21.040Z,99328.53
2023-03-15T06:25:59.302Z,99346.75
2023-03-15T06:28:43.317Z,99358.38
2023-03-15T06:31:19.991Z,99373.88
2023-03-15T06:34:04.417Z,99383.91
2023-03-15T06:36:45.183Z,99398.50
2023-03-15T06:39:23.662Z,99399.31
2023-03-15T06:42:00.958Z,99412.38
2023-03-15T06:44:51.273Z,99416.75
2023-03-15T06:47:35.334Z,99426.56
2023-03-15T06:50:16.885Z,99433.59
2023-03-15T06:52:54.507Z,99431.72
2023-03-15T06:55:34.011Z,99432.13
2023-03-15T06:58:12.781Z,99429.59
2023-03-15T07:00:52.406Z,99415.63
2023-03-15T07:03:32.327Z,99417.91
2023-03-15T07:06:11.918Z,99402.72
2023-03-15T07:08:59.649Z,99392.84
2023-03-15T07:11:39.363Z,99430.09
2023-03-15T07:14:22.324Z,99429.97
2023-03-15T07:17:03.005Z,99437.94
2023-03-15T07:19:50.156Z,99409.03
2023-03-15T07:22:44.069Z,99446.25
2023-03-15T07:25:48.325Z,99452.63
2023-03-15T07:28:31.728Z,99473.03
2023-03-15T07:31:12.489Z,99473.03
2023-03-15T07:33:56.589Z,99482.94
2023-03-15T07:36:42.365Z,99491.84
2023-03-15T07:39:27.955Z,99487.03
2023-03-15T07:42:05.377Z,99491.72
2023-03-15T07:45:01.285Z,99488.31
2023-03-15T07:47:42.598Z,99497.47
2023-03-15T07:50:21.247Z,99489.38
2023-03-15T07:53:02.189Z,99488.28
2023-03-15T07:55:44.168Z,99506.31
2023-03-15T07:58:21.039Z,99503.97
2023-03-15T08:01:09.135Z,99499.50
2023-03-15T08:03:48.601Z,99500.63
2023-03-15T08:06:31.799Z,99480.63
2023-03-15T08:09:20.294Z,99507.41
2023-03-15T08:11:58.771Z,99506.41
2023-03-15T08:14:36.220Z,99480.88
2023-03-15T08:17:26.662Z,99504.03
2023-03-15T08:20:11.117Z,99498.06
2023-03-15T08:22:50.020Z,99475.19
2023-03-15T08:25:44.385Z,99497.03
2023-03-15T08:28:18.205Z,99514.06
2023-03-15T08:30:57.202Z,99516.53
2023-03-15T08:33:31.891Z,99512.47
2023-03-15T08:36:06.193Z,99514.69
2023-03-15T08:38:41.959Z,99507.41
2023-03-15T08:41:18.776Z,99536.28
2023-03-15T08:44:01.093Z,99530.94
2023-03-15T08:46:40.346Z,99535.91
2023-03-15T08:49:26.483Z,99552.91
2023-03-15T08:52:06.214Z,99553.47
2023-03-15T08:54:44.718Z,99565.69
2023-03-15T08:57:32.667Z,99555.69
2023-03-15T09:00:24.086Z,99562.63
2023-03-15T09:03:08.203Z,99562.00
2023-03-15T09:05:53.909Z,99556.91
2023-03-15T09:08:36.208Z,99558.69
2023-03-15T09:11:22.981Z,99564.75
2023-03-15T09:14:15.606Z,99561.66
2023-03-15T09:17:08.353Z,99579.34
2023-03-15T09:19:48.673Z,99576.59
2023-03-15T09:22:39.422Z,99580.75
2023-03-15T09:25:23.221Z,99578.06
2023-03-15T09:28:05.218Z,99587.41
2023-03-15T09:30:46.248Z,99588.47
2023-03-15T09:33:22.662Z,99587.13
2023-03-15T09:36:02.638Z,99594.13
2023-03-15T09:38:49.390Z,99588.00
2023-03-15T09:41:51.748Z,99594.03
2023-03-15T09:44:52.180Z,99599.63
2023-03-15T09:48:01.112Z,99597.19
2023-03-15T09:50:41.853Z,99599.88
2023-03-15T09:53:25.707Z,99595.03
2023-03-15T09:55:59.069Z,99593.75
2023-03-15T09:58:38.851Z,99595.94
2023-03-15T10:01:24.188Z,99595.25
2023-03-15T10:04:04.439Z,99594.03
2023-03-15T10:06:48.931Z,99605.25
2023-03-15T10:09:36.246Z,99614.53
2023-03-15T10:12:20.483Z,99618.63
2023-03-15T10:15:32.227Z,99622.00
2023-03-15T10:18:48.327Z,99617.38
2023-03-15T10:21:39.208Z,99606.19
2023-03-15T10:24:31.641Z,99621.22
2023-03-15T10:27:24.141Z,99615.84
2023-03-15T10:30:04.951Z,99613.22
2023-03-15T10:32:48.592Z,99626.09
2023-03-15T10:35:25.845Z,99614.94
2023-03-15T10:38:07.137Z,99623.06
2023-03-15T10:40:54.375Z,99637.88
2023-03-15T10:43:37.971Z,99629.44
2023-03-15T10:46:28.035Z,99629.56
2023-03-15T10:49:15.542Z,99643.31
2023-03-15T10:51:50.211Z,99647.22
2023-03-15T10:54:29.789Z,99642.19
2023-03-15T10:57:19.007Z,99649.06
2023-03-15T11:00:27.296Z,99638.19
2023-03-15T11:03:19.925Z,99643.38
2023-03-15T11:05:59.651Z,99643.97
2023-03-15T11:08:55.817Z,99636.81
2023-03-15T11:11:38.740Z,99627.47
2023-03-15T11:14:18.266Z,99655.09
2023-03-15T11:17:09.321Z,99662.66
2023-03-15T11:20:06.108Z,99659.66
2023-03-15T11:22:47.464Z,99671.94
2023-03-15T11:25:26.384Z,99666.13
2023-03-15T11:28:06.410Z,99670.88
2023-03-15T11:30:48.443Z,99668.09
2023-03-15T11:33:30.786Z,99668.75
2023-03-15T11:36:23.243Z,99673.28
2023-03-15T11:39:03.609Z,99679.16
2023-03-15T11:41:49.975Z,99656.50
2023-03-15T11:44:40.853Z,99667.63
2023-03-15T11:47:25.050Z,99671.88
2023-03-15T11:50:13.900Z,99679.56
2023-03-15T11:53:05.722Z,99678.09
2023-03-15T11:56:09.806Z,99671.53
2023-03-15T11:58:53.386Z,99674.66
2023-03-15T12:01:52.124Z,99694.06
2023-03-15T12:04:54.289Z,99679.41
2023-03-15T12:08:03.032Z,99687.53
2023-03-15T12:10:51.125Z,99688.72
2023-03-15T12:13:38.303Z,99692.56
2023-03-15T12:16:21.994Z,99683.59
2023-03-15T12:19:05.538Z,99700.94
2023-03-15T12:21:50.403Z,99681.28
2023-03-15T12:24:33.473Z,99681.09
2023-03-15T12:27:19.406Z,99687.50
2023-03-15T12:30:13.674Z,99698.47
2023-03-15T12:32:57.616Z,99703.63
2023-03-15T12:35:52.640Z,99714.38
2023-03-15T12:38:44.858Z,99689.06
2023-03-15T12:41:49.563Z,99717.66
2023-03-15T12:44:41.512Z,99696.53
2023-03-15T12:47:25.025Z,99719.19
2023-03-15T12:50:06.912Z,99722.41
2023-03-15T12:53:05.681Z,99727.03
2023-03-15T12:55:42.840Z,99744.38
2023-03-15T12:58:21.514Z,99737.72
2023-03-15T13:00:57.239Z,99751.09
2023-03-15T13:03:46.734Z,99750.84
2023-03-15T13:06:34.577Z,99743.69
2023-03-15T13:09:24.141Z,99749.84
2023-03-15T13:12:12.950Z,99756.78
2023-03-15T13:15:04.938Z,99762.66
2023-03-15T13:17:44.228Z,99741.34
2023-03-15T13:20:39.504Z,99765.59
2023-03-15T13:23:28.505Z,99753.09
2023-03-15T13:26:31.630Z,99758.94
2023-03-15T13:29:21.954Z,99766.94
2023-03-15T13:32:15.552Z,99780.03
2023-03-15T13:34:57.974Z,99774.66
2023-03-15T13:37:37.893Z,99788.78
2023-03-15T13:40:16.557Z,99779.22
2023-03-15T13:42:58.504Z,99796.00
2023-03-15T13:45:43.274Z,99769.88
2023-03-15T13:48:30.347Z,99794.69
2023-03-15T13:51:14.058Z,99786.41
2023-03-15T13:54:01.708Z,99796.53
2023-03-15T13:56:49.718Z,99800.81
2023-03-15T13:59:31.089Z,99778.66
2023-03-15T14:02:13.919Z,99798.13
2023-03-15T14:04:54.832Z,99808.25
2023-03-15T14:07:44.077Z,99811.22
2023-03-15T14:10:32.465Z,99814.41
2023-03-15T14:13:28.176Z,99811.44
2023-03-15T14:16:08.818Z,99823.16
2023-03-15T14:18:54.841Z,99825.56
2023-03-15T14:21:38.230Z,99819.72
2023-03-15T14:24:25.311Z,99821.81
2023-03-15T14:27:17.437Z,99817.31
2023-03-15T14:30:04.178Z,99832.78
2023-03-15T14:32:43.711Z,99824.53
2023-03-15T14:35:36.334Z,99835.69
2023-03-15T14:38:22.905Z,99823.91
2023-03-15T14:41:00.999Z,99840.19
2023-03-15T14:43:39.977Z,99841.19
2023-03-15T14:46:16.995Z,99839.25
2023-03-15T14:49:23.298Z,99835.03
2023-03-15T14:52:07.522Z,99829.56
2023-03-15T14:54:45.584Z,99843.13
2023-03-15T14:57:29.610Z,99849.28
2023-03-15T15:00:14.122Z,99859.88
2023-03-15T15:02:50.460Z,99843.06
2023-03-15T15:05:35.696Z,99847.03
2023-03-15T15:08:18.108Z,99856.06
2023-03-15T15:10:53.832Z,99849.53
2023-03-15T15:13:40.718Z,99876.31
2023-03-15T15:16:17.503Z,99866.78
2023-03-15T15:18:53.088Z,99874.81
2023-03-15T15:21:38.353Z,99888.69
2023-03-15T15:24:23.916Z,99898.50
2023-03-15T15:27:13.108Z,99883.19
2023-03-15T15:29:51.037Z,99904.94
2023-03-15T15:32:32.627Z,99923.22
2023-03-15T15:35:06.808Z,99917.84
2023-03-15T15:37:58.574Z,99915.69
2023-03-15T15:40:36.626Z,99933.69
2023-03-15T15:43:24.880Z,99936.13
2023-03-15T15:46:05.853Z,99959.50
2023-03-15T15:48:51.549Z,99958.66
2023-03-15T15:51:38.322Z,99965.13
2023-03-15T15:54:19.454Z,99959.94
2023-03-15T15:57:14.330Z,99966.94
2023-03-15T15:59:54.285Z,99969.47
2023-03-15T16:02:51.485Z,99970.88
2023-03-15T16:05:34.533Z,99988.19
2023-03-15T16:08:19.353Z,99993.69
2023-03-15T16:11:01.688Z,99979.75
2023-03-15T16:13:43.570Z,100004.88
2023-03-15T16:16:25.903Z,99997.84
2023-03-15T16:19:09.976Z,100012.59
2023-03-15T16:21:52.383Z,100018.50
2023-03-15T16:24:39.297Z,100027.63
2023-03-15T16:27:34.224Z,100018.53
2023-03-15T16:30:24.046Z,100035.53
2023-03-15T16:33:02.569Z,100041.16
2023-03-15T16:35:42.330Z,100052.13
2023-03-15T16:38:29.026Z,100025.69
2023-03-15T16:41:06.859Z,100062.47
2023-03-15T16:43:41.295Z,100063.84
2023-03-15T16:46:26.547Z,100017.13
2023-03-15T16:49:02.636Z,100064.00
2023-03-15T16:51:45.591Z,100050.56
2023-03-15T16:54:40.539Z,100101.88
2023-03-15T16:57:29.701Z,100117.59
2023-03-15T17:00:06.166Z,100120.31
2023-03-15T17:02:57.368Z,100129.56
2023-03-15T17:05:33.344Z,100129.56
2023-03-15T17:08:18.697Z,100145.97
2023-03-15T17:10:51.946Z,100154.09
2023-03-15T17:13:39.573Z,100154.31
2023-03-15T17:16:24.752Z,100168.47
2023-03-15T17:19:13.091Z,100150.97
2023-03-15T17:21:59.429Z,100162.16
2023-03-15T17:24:33.689Z,100179.28
2023-03-15T17:27:21.764Z,100190.34
2023-03-15T17:29:55.844Z,100192.22
2023-03-15T17:32:33.321Z,100193.91
2023-03-15T17:35:21.202Z,100211.72
2023-03-15T17:38:09.477Z,100221.50
2023-03-15T17:40:46.639Z,100221.50
2023-03-15T17:43:32.374Z,100222.19
2023-03-15T17:46:05.014Z,100231.06
2023-03-15T17:48:40.870Z,100232.31
2023-03-15T17:51:34.710Z,100251.03
2023-03-15T17:54:25.190Z,100233.94
2023-03-15T17:57:14.508Z,100265.50
2023-03-15T17:59:53.274Z,100254.19
2023-03-15T18:02:37.043Z,100252.84
2023-03-15T18:05:24.110Z,100260.13
2023-03-15T18:08:03.603Z,100270.16
2023-03-15T18:10:55.177Z,100276.38
2023-03-15T18:13:36.162Z,100272.25
2023-03-15T18:16:35.479Z,100277.78
2023-03-15T18:19:14.534Z,100270.16
2023-03-15T18:21:54.821Z,100289.41
2023-03-15T18:24:46.672Z,100282.59
2023-03-15T18:27:26.461Z,100277.06
2023-03-15T18:30:06.150Z,100285.13
2023-03-15T18:32:45.556Z,100295.84
2023-03-15T18:35:22.350Z,100296.88
2023-03-15T18:38:05.972Z,100303.22
2023-03-15T18:43:55.789Z,100319.63
2023-03-15T18:46:44.780Z,100327.00
2023-03-15T18:49:29.111Z,100327.81
2023-03-15T18:52:05.224Z,100329.53
2023-03-15T18:54:58.481Z,100328.19
2023-03-15T18:57:47.219Z,100340.97
2023-03-15T19:00:29.766Z,100345.22
2023-03-15T19:03:14.629Z,100338.19
2023-03-15T19:06:04.368Z,100334.97
2023-03-15T19:08:42.056Z,100338.00
2023-03-15T19:11:27.596Z,100353.78
2023-03-15T19:14:10.003Z,100346.38
2023-03-15T19:16:50.323Z,100355.06
2023-03-15T19:19:29.064Z,100350.22
2023-03-15T19:22:15.452Z,100368.91
2023-03-15T19:25:00.598Z,100377.31
2023-03-15T19:27:37.106Z,100370.16
2023-03-15T19:30:23.998Z,100381.31
2023-03-15T19:33:15.343Z,100399.31
2023-03-15T19:36:01.152Z,100398.50
2023-03-15T19:38:49.490Z,100408.44
2023-03-15T19:41:38.176Z,100404.84
2023-03-15T19:44:18.902Z,100412.00
2023-03-15T19:47:10.911Z,100404.72
2023-03-15T19:49:47.423Z,100410.81
2023-03-15T19:52:32.311Z,100408.13
2023-03-15T19:55:15.461Z,100425.13
2023-03-15T19:57:57.133Z,100431.22
2023-03-15T20:00:43.407Z,100433.22
2023-03-15T20:03:32.326Z,100432.63
2023-03-15T20:06:43.204Z,100419.66
2023-03-15T20:09:18.251Z,100455.00
2023-03-15T20:11:48.746Z,100457.56
2023-03-15T20:14:26.299Z,100453.66
2023-03-15T20:17:03.205Z,100450.75
2023-03-15T20:19:48.820Z,100463.34
2023-03-15T20:22:35.117Z,100451.09
2023-03-15T20:25:10.632Z,100467.03
2023-03-15T20:27:47.649Z,100474.22
2023-03-15T20:30:25.864Z,100463.69
2023-03-15T20:33:09.162Z,100487.16
2023-03-15T20:35:50.111Z,100480.09
2023-03-15T20:38:31.709Z,100482.66
2023-03-15T20:41:12.360Z,100482.88
2023-03-15T20:43:47.295Z,100489.00
2023-03-15T20:46:28.416Z,100469.59
2023-03-15T20:49:20.252Z,100506.19
2023-03-15T20:52:02.220Z,100504.16
2023-03-15T20:54:42.140Z,100502.44
2023-03-15T20:57:23.640Z,100505.69
2023-03-15T21:00:04.986Z,100513.75
2023-03-15T21:02:41.961Z,100527.38
2023-03-15T21:05:20.850Z,100532.44
2023-03-15T21:08:00.674Z,100531.09
2023-03-15T21:10:40.841Z,100529.97
2023-03-15T21:13:20.789Z,100529.28
2023-03-15T21:16:09.364Z,100539.53
2023-03-15T21:18:53.140Z,100547.28
2023-03-15T21:21:28.103Z,100545.97
2023-03-15T21:24:16.792Z,100519.69
2023-03-15T21:27:06.728Z,100553.78
2023-03-15T21:29:44.605Z,100562.59
2023-03-15T21:32:32.569Z,100559.38
2023-03-15T21:35:07.101Z,100555.97
2023-03-15T21:37:51.224Z,100570.41
2023-03-15T21:40:26.402Z,100560.56
2023-03-15T21:43:14.783Z,100568.78
2023-03-15T21:45:54.507Z,100574.59
2023-03-15T21:48:33.429Z,100575.72
2023-03-15T21:51:14.687Z,100561.22
2023-03-15T21:53:54.446Z,100588.38
2023-03-15T21:56:39.662Z,100585.72
2023-03-15T21:59:17.181Z,100586.09
2023-03-15T22:01:56.151Z,100564.69
2023-03-15T22:04:41.308Z,100585.72
2023-03-15T22:07:19.244Z,100582.44
2023-03-15T22:10:10.283Z,100601.19
2023-03-15T22:12:55.655Z,100592.66
2023-03-15T22:15:37.024Z,100600.47
2023-03-15T22:18:16.766Z,100603.03
2023-03-15T22:20:56.256Z,100598.81
2023-03-15T22:23:37.208Z,100602.53
2023-03-15T22:26:11.607Z,100603.41
2023-03-15T22:29:00.160Z,100592.47
2023-03-15T22:31:34.087Z,100611.22
2023-03-15T22:34:13.694Z,100617.91
2023-03-15T22:36:48.349Z,100584.63
2023-03-15T22:39:30.130Z,100598.84
2023-03-15T22:42:20.271Z,100600.59
2023-03-15T22:45:07.353Z,100607.50
2023-03-15T22:47:48.527Z,100590.28
2023-03-15T22:50:26.885Z,100622.69
2023-03-15T22:53:07.351Z,100621.97
2023-03-15T22:55:50.308Z,100625.13
2023-03-15T22:58:31.091Z,100624.50
2023-03-15T23:01:25.174Z,100624.00
2023-03-15T23:04:02.165Z,100635.63
2023-03-15T23:06:42.667Z,100633.88
2023-03-15T23:09:20.797Z,100627.97
2023-03-15T23:12:04.001Z,100644.94
2023-03-15T23:14:36.931Z,100638.13
2023-03-15T23:17:21.726Z,100645.34
2023-03-15T23:20:04.252Z,100644.00
2023-03-15T23:22:43.126Z,100648.50
2023-03-15T23:25:26.766Z,100652.34
2023-03-15T23:28:03.644Z,100651.53
2023-03-15T23:30:40.226Z,100664.41
2023-03-15T23:33:20.289Z,100657.47
2023-03-15T23:36:05.873Z,100654.22
2023-03-15T23:38:56.199Z,100666.97
2023-03-15T23:41:35.283Z,100670.09
2023-03-15T23:44:15.735Z,100681.22
2023-03-15T23:46:56.797Z,100680.84
2023-03-15T23:49:46.065Z,100688.50
2023-03-15T23:52:25.712Z,100691.44
2023-03-15T23:55:06.723Z,100692.66
2023-03-15T23:57:49.548Z,100696.97
